createdAt,value
2017-09-09T00:02:10.494Z,6.93
2017-09-09T00:04:37.970Z,7.73
2017-09-09T00:07:05.426Z,9.13
2017-09-09T00:09:32.874Z,7.13
2017-09-09T00:12:00.588Z,7.70
2017-09-09T00:14:28.034Z,7.33
2017-09-09T00:16:55.874Z,7.03
2017-09-09T00:19:23.748Z,6.80
2017-09-09T00:21:51.191Z,7.73
2017-09-09T00:24:19.491Z,7.33
2017-09-09T00:26:47.347Z,7.43
2017-09-09T00:29:14.798Z,8.50
2017-09-09T00:31:42.643Z,6.87
2017-09-09T00:34:10.095Z,6.53
2017-09-09T00:36:37.538Z,6.00
2017-09-09T00:39:04.990Z,6.30
2017-09-09T00:41:32.454Z,4.90
2017-09-09T00:43:59.906Z,5.00
2017-09-09T00:46:27.366Z,5.10
2017-09-09T00:48:54.938Z,5.60
2017-09-09T00:51:22.386Z,4.73
2017-09-09T00:53:49.839Z,5.00
2017-09-09T00:56:17.595Z,5.00
2017-09-09T00:58:45.046Z,5.80
2017-09-09T01:01:12.502Z,5.53
2017-09-09T01:03:39.958Z,5.37
2017-09-09T01:06:07.406Z,7.00
2017-09-09T01:08:34.906Z,5.37
2017-09-09T01:11:02.758Z,5.70
2017-09-09T01:13:30.614Z,5.63
2017-09-09T01:15:58.074Z,4.80
2017-09-09T01:18:25.522Z,6.03
2017-09-09T01:20:52.974Z,6.33
2017-09-09T01:23:20.455Z,7.13
2017-09-09T01:25:47.905Z,5.70
2017-09-09T01:28:15.759Z,5.40
2017-09-09T01:30:43.247Z,6.13
2017-09-09T01:33:10.697Z,6.03
2017-09-09T01:35:38.154Z,8.53
2017-09-09T01:38:05.872Z,5.63
2017-09-09T01:40:33.331Z,5.93
2017-09-09T01:43:00.798Z,6.53
2017-09-09T01:45:28.649Z,6.33
2017-09-09T01:47:56.954Z,7.40
2017-09-09T01:50:24.408Z,7.00
2017-09-09T01:52:51.858Z,7.00
2017-09-09T01:55:19.711Z,6.77
2017-09-09T01:57:47.176Z,8.90
2017-09-09T02:00:14.625Z,7.73
2017-09-09T02:02:42.079Z,7.87
2017-09-09T02:05:10.229Z,8.40
2017-09-09T02:07:37.693Z,8.53
2017-09-09T02:10:05.137Z,8.57
2017-09-09T02:12:32.616Z,10.73
2017-09-09T02:15:00.471Z,9.30
2017-09-09T02:17:27.936Z,12.73
2017-09-09T02:19:55.431Z,9.10
2017-09-09T02:22:22.891Z,9.63
2017-09-09T02:24:50.333Z,9.30
2017-09-09T02:27:18.062Z,9.33
2017-09-09T02:29:45.916Z,11.03
2017-09-09T02:32:13.376Z,11.07
2017-09-09T02:34:40.837Z,12.10
2017-09-09T02:37:08.735Z,13.80
2017-09-09T02:39:36.206Z,11.53
2017-09-09T02:42:03.679Z,11.60
2017-09-09T02:44:31.217Z,15.20
2017-09-09T02:46:58.646Z,12.33
2017-09-09T02:49:26.113Z,14.47
2017-09-09T02:51:53.582Z,15.50
2017-09-09T02:57:12.208Z,13.13
2017-09-09T02:59:39.672Z,14.10
2017-09-09T03:02:07.170Z,15.53
2017-09-09T03:04:34.640Z,15.37
2017-09-09T03:07:02.110Z,15.73
2017-09-09T03:09:29.756Z,17.60
2017-09-09T03:11:57.224Z,16.30
2017-09-09T03:14:24.691Z,15.87
2017-09-09T03:16:52.810Z,19.13
2017-09-09T03:19:20.281Z,16.73
2017-09-09T03:21:47.746Z,19.33
2017-09-09T03:24:15.424Z,17.63
2017-09-09T03:26:42.891Z,19.60
2017-09-09T03:29:10.759Z,21.40
2017-09-09T03:31:39.120Z,20.43
2017-09-09T03:34:06.588Z,21.10
2017-09-09T03:36:34.443Z,21.47
2017-09-09T03:39:02.200Z,22.80
2017-09-09T03:41:29.663Z,20.90
2017-09-09T03:43:57.129Z,20.93
2017-09-09T03:46:24.624Z,23.87
2017-09-09T03:48:52.091Z,22.70
2017-09-09T03:51:19.559Z,25.67
2017-09-09T03:53:47.344Z,21.80
2017-09-09T03:56:14.808Z,23.97
2017-09-09T03:58:42.283Z,23.50
2017-09-09T04:01:10.146Z,26.43
2017-09-09T04:03:37.611Z,24.40
2017-09-09T04:06:05.364Z,22.77
2017-09-09T04:08:32.824Z,23.27
2017-09-09T04:11:00.293Z,23.27
2017-09-09T04:13:27.778Z,29.50
2017-09-09T04:15:55.253Z,29.73
2017-09-09T04:18:22.715Z,24.93
2017-09-09T04:20:50.438Z,29.20
2017-09-09T04:23:17.912Z,27.90
2017-09-09T04:25:45.379Z,26.90
2017-09-09T04:28:12.855Z,29.53
2017-09-09T04:30:40.347Z,30.30
2017-09-09T04:33:07.839Z,30.93
2017-09-09T04:35:35.310Z,26.33
2017-09-09T04:38:02.775Z,26.13
2017-09-09T04:40:30.945Z,24.70
2017-09-09T04:42:58.409Z,29.13
2017-09-09T04:45:26.267Z,25.23
2017-09-09T04:47:54.150Z,23.67
2017-09-09T04:50:21.615Z,25.13
2017-09-09T04:52:49.083Z,25.00
2017-09-09T04:55:16.579Z,23.40
2017-09-09T04:57:44.047Z,26.37
2017-09-09T05:00:11.518Z,26.73
2017-09-09T05:02:38.992Z,24.80
2017-09-09T05:05:06.467Z,28.10
2017-09-09T05:07:33.963Z,22.87
2017-09-09T05:10:01.431Z,21.37
2017-09-09T05:12:28.904Z,20.43
2017-09-09T05:14:56.394Z,21.30
2017-09-09T05:17:23.866Z,22.17
2017-09-09T05:19:51.587Z,20.30
2017-09-09T05:22:19.089Z,17.20
2017-09-09T05:24:46.552Z,16.00
2017-09-09T05:27:14.021Z,15.80
2017-09-09T05:29:41.517Z,18.27
2017-09-09T05:32:08.980Z,17.97
2017-09-09T05:34:36.446Z,17.77
2017-09-09T05:37:03.948Z,19.20
2017-09-09T05:39:31.812Z,18.83
2017-09-09T05:41:59.676Z,19.50
2017-09-09T05:44:27.432Z,21.80
2017-09-09T05:46:54.908Z,20.60
2017-09-09T05:49:22.379Z,20.87
2017-09-09T05:51:49.895Z,23.47
2017-09-09T05:54:17.367Z,24.27
2017-09-09T05:56:45.228Z,23.40
2017-09-09T05:59:12.743Z,21.57
2017-09-09T06:01:40.215Z,20.10
2017-09-09T06:04:07.682Z,23.90
2017-09-09T06:06:35.188Z,17.63
2017-09-09T06:09:02.654Z,20.57
2017-09-09T06:11:30.122Z,19.83
2017-09-09T06:13:57.700Z,16.30
2017-09-09T06:16:25.167Z,18.37
2017-09-09T06:18:52.633Z,20.83
2017-09-09T06:21:20.608Z,15.37
2017-09-09T06:23:48.067Z,22.43
2017-09-09T06:26:15.540Z,17.17
2017-09-09T06:28:43.364Z,16.70
2017-09-09T06:31:10.826Z,18.73
2017-09-09T06:33:38.683Z,18.83
2017-09-09T06:36:06.344Z,16.57
2017-09-09T06:38:33.816Z,15.63
2017-09-09T06:41:01.678Z,17.47
2017-09-09T06:43:29.551Z,20.40
2017-09-09T06:45:57.020Z,18.17
2017-09-09T06:48:24.488Z,13.93
2017-09-09T06:50:52.262Z,17.77
2017-09-09T06:53:19.732Z,16.80
2017-09-09T06:55:47.195Z,19.67
2017-09-09T06:58:14.697Z,18.27
2017-09-09T07:00:42.163Z,14.47
2017-09-09T07:03:09.640Z,15.97
2017-09-09T07:05:37.124Z,13.50
2017-09-09T07:08:04.593Z,18.23
2017-09-09T07:10:32.058Z,15.87
2017-09-09T07:13:00.224Z,18.90
2017-09-09T07:15:28.507Z,13.90
2017-09-09T07:17:55.988Z,12.80
2017-09-09T07:20:23.467Z,14.37
2017-09-09T07:22:50.940Z,14.30
2017-09-09T07:25:18.426Z,13.43
2017-09-09T07:27:45.932Z,12.57
2017-09-09T07:30:13.400Z,12.73
2017-09-09T07:32:40.863Z,14.03
2017-09-09T07:35:08.376Z,15.37
2017-09-09T07:37:35.841Z,16.67
2017-09-09T07:40:03.312Z,17.67
2017-09-09T07:42:31.011Z,19.13
2017-09-09T07:44:58.471Z,13.60
2017-09-09T07:47:26.340Z,15.83
2017-09-09T07:49:54.396Z,12.33
2017-09-09T07:52:21.859Z,10.60
2017-09-09T07:54:49.715Z,11.43
2017-09-09T07:57:17.183Z,12.10
2017-09-09T07:59:45.041Z,13.00
2017-09-09T08:02:12.505Z,11.20
2017-09-09T08:04:39.963Z,11.63
2017-09-09T08:07:07.448Z,13.57
2017-09-09T08:09:34.912Z,12.53
2017-09-09T08:12:02.376Z,11.87
2017-09-09T08:14:29.864Z,12.77
2017-09-09T08:16:57.333Z,12.13
2017-09-09T08:19:25.195Z,10.73
2017-09-09T08:21:52.965Z,11.00
2017-09-09T08:24:20.427Z,14.27
2017-09-09T08:26:47.936Z,12.27
2017-09-09T08:29:15.619Z,14.20
2017-09-09T08:31:43.097Z,14.13
2017-09-09T08:34:10.555Z,12.60
2017-09-09T08:36:38.036Z,12.00
2017-09-09T08:39:05.494Z,13.63
2017-09-09T08:41:32.950Z,10.80
2017-09-09T08:44:00.632Z,11.40
2017-09-09T08:46:28.095Z,11.87
2017-09-09T08:48:55.594Z,13.27
2017-09-09T08:51:23.084Z,11.20
2017-09-09T08:53:50.544Z,12.13
2017-09-09T08:56:18.011Z,13.57
2017-09-09T08:58:45.491Z,10.43
2017-09-09T09:01:12.951Z,13.30
2017-09-09T09:03:40.820Z,11.20
2017-09-09T09:06:08.984Z,10.80
2017-09-09T09:08:36.451Z,11.27
2017-09-09T09:11:03.909Z,11.93
2017-09-09T09:13:31.408Z,10.43
2017-09-09T09:15:58.868Z,10.73
2017-09-09T09:18:26.334Z,12.27
2017-09-09T09:20:53.802Z,10.93
2017-09-09T09:23:21.276Z,13.53
2017-09-09T09:25:48.763Z,11.87
2017-09-09T09:28:16.233Z,11.80
2017-09-09T09:30:43.792Z,10.57
2017-09-09T09:33:11.274Z,12.43
2017-09-09T09:35:38.740Z,12.50
2017-09-09T09:38:06.203Z,11.53
2017-09-09T09:40:33.690Z,13.63
2017-09-09T09:43:01.152Z,12.17
2017-09-09T09:45:28.615Z,15.27
2017-09-09T09:47:56.093Z,14.03
2017-09-09T09:50:23.551Z,14.17
2017-09-09T09:52:51.010Z,10.93
2017-09-09T09:55:18.582Z,11.47
2017-09-09T09:57:46.043Z,11.30
2017-09-09T10:00:13.499Z,8.13
2017-09-09T10:02:41.093Z,8.23
2017-09-09T10:05:08.552Z,10.40
2017-09-09T10:07:36.012Z,10.97
2017-09-09T10:10:03.483Z,10.60
2017-09-09T10:12:30.931Z,7.47
2017-09-09T10:14:58.426Z,11.20
2017-09-09T10:17:25.888Z,8.53
2017-09-09T10:19:53.347Z,10.37
2017-09-09T10:22:21.119Z,10.00
2017-09-09T10:24:50.034Z,10.20
2017-09-09T10:27:17.498Z,10.70
2017-09-09T10:29:44.984Z,9.93
2017-09-09T10:32:12.450Z,8.43
2017-09-09T10:34:39.909Z,9.47
2017-09-09T10:37:07.588Z,9.57
2017-09-09T10:39:35.039Z,7.37
2017-09-09T10:42:02.499Z,7.20
2017-09-09T10:44:29.976Z,6.60
2017-09-09T10:46:57.823Z,8.00
2017-09-09T10:49:25.283Z,7.70
2017-09-09T10:51:52.778Z,6.80
2017-09-09T10:54:20.234Z,6.80
2017-09-09T10:56:47.693Z,7.60
2017-09-09T10:59:15.179Z,8.73
2017-09-09T11:01:42.639Z,8.40
2017-09-09T11:04:10.100Z,15.40
2017-09-09T11:06:37.864Z,10.30
2017-09-09T11:09:05.322Z,10.57
2017-09-09T11:11:32.780Z,9.17
2017-09-09T11:14:00.267Z,10.97
2017-09-09T11:16:27.725Z,11.07
2017-09-09T11:18:55.179Z,9.37
2017-09-09T11:21:22.646Z,9.40
2017-09-09T11:23:50.107Z,10.60
2017-09-09T11:26:17.563Z,8.90
2017-09-09T11:28:45.153Z,6.43
2017-09-09T11:31:12.615Z,8.07
2017-09-09T11:33:40.076Z,7.70
2017-09-09T11:36:07.532Z,9.23
2017-09-09T11:38:34.984Z,6.90
2017-09-09T11:41:02.463Z,6.30
2017-09-09T11:43:30.611Z,6.50
2017-09-09T11:45:58.073Z,6.93
2017-09-09T11:48:25.532Z,7.73
2017-09-09T11:50:53.691Z,6.90
2017-09-09T11:53:21.148Z,5.40
2017-09-09T11:55:48.603Z,8.00
2017-09-09T11:58:16.076Z,6.33
2017-09-09T12:00:43.928Z,5.90
2017-09-09T12:03:11.382Z,5.13
2017-09-09T12:05:38.852Z,4.20
2017-09-09T12:08:06.314Z,4.53
2017-09-09T12:10:33.766Z,4.40
2017-09-09T12:13:01.726Z,5.13
2017-09-09T12:15:29.192Z,4.50
2017-09-09T12:17:56.638Z,5.10
2017-09-09T12:20:24.099Z,4.60
2017-09-09T12:22:51.552Z,4.00
2017-09-09T12:25:19.048Z,6.67
2017-09-09T12:27:46.517Z,4.03
2017-09-09T12:30:13.974Z,4.30
2017-09-09T12:32:41.459Z,4.60
2017-09-09T12:35:08.915Z,4.97
2017-09-09T12:37:36.772Z,5.47
2017-09-09T12:40:04.259Z,4.40
2017-09-09T12:42:31.722Z,3.53
2017-09-09T12:44:59.174Z,3.50
2017-09-09T12:47:26.647Z,4.10
2017-09-09T12:49:54.102Z,3.93
2017-09-09T12:52:21.565Z,5.10
2017-09-09T12:54:49.045Z,4.30
2017-09-09T12:57:16.499Z,4.47
2017-09-09T12:59:43.963Z,5.30
2017-09-09T13:02:11.431Z,4.50
2017-09-09T13:04:38.889Z,5.73
2017-09-09T13:07:06.348Z,4.27
2017-09-09T13:09:34.607Z,4.60
2017-09-09T13:12:02.067Z,6.23
2017-09-09T13:14:29.524Z,4.50
2017-09-09T13:16:56.991Z,5.17
2017-09-09T13:19:24.485Z,4.60
2017-09-09T13:21:51.968Z,3.70
2017-09-09T13:24:19.423Z,4.60
2017-09-09T13:26:47.042Z,6.20
2017-09-09T13:29:14.524Z,4.43
2017-09-09T13:31:41.988Z,4.37
2017-09-09T13:34:09.448Z,5.63
2017-09-09T13:36:36.929Z,4.97
2017-09-09T13:39:04.384Z,4.80
2017-09-09T13:41:31.839Z,4.47
2017-09-09T13:43:59.411Z,4.37
2017-09-09T13:46:27.260Z,4.47
2017-09-09T13:48:54.714Z,5.20
2017-09-09T13:51:22.188Z,3.60
2017-09-09T13:53:50.043Z,4.33
2017-09-09T13:56:17.892Z,4.40
2017-09-09T13:58:45.639Z,4.93
2017-09-09T14:01:13.096Z,4.27
2017-09-09T14:03:40.551Z,5.23
2017-09-09T14:06:08.040Z,5.30
2017-09-09T14:08:35.892Z,5.13
2017-09-09T14:11:03.347Z,6.07
2017-09-09T14:13:31.110Z,7.67
2017-09-09T14:15:58.567Z,6.30
2017-09-09T14:18:26.425Z,5.23
2017-09-09T14:20:53.943Z,23.53
2017-09-09T14:23:21.395Z,7.33
2017-09-09T14:25:48.852Z,5.53
2017-09-09T14:28:16.331Z,5.77
2017-09-09T14:30:43.792Z,6.80
2017-09-09T14:33:11.255Z,8.53
2017-09-09T14:35:38.914Z,5.60
2017-09-09T14:38:06.371Z,5.63
2017-09-09T14:40:33.827Z,6.80
2017-09-09T14:43:01.466Z,7.87
2017-09-09T14:45:28.923Z,6.50
2017-09-09T14:47:56.379Z,7.00
2017-09-09T14:50:24.054Z,6.93
2017-09-09T14:52:51.511Z,7.40
2017-09-09T14:55:18.980Z,10.13
2017-09-09T14:57:46.467Z,8.33
2017-09-09T15:00:13.925Z,9.77
2017-09-09T15:02:41.374Z,9.50
2017-09-09T15:05:08.867Z,9.53
2017-09-09T15:07:36.323Z,10.27
2017-09-09T15:10:03.781Z,9.53
2017-09-09T15:12:31.256Z,9.80
2017-09-09T15:14:58.715Z,9.27
2017-09-09T15:17:26.311Z,10.40
2017-09-09T15:19:53.771Z,10.37
2017-09-09T15:22:21.233Z,8.90
2017-09-09T15:24:48.715Z,9.50
2017-09-09T15:27:16.176Z,10.37
2017-09-09T15:29:43.623Z,9.73
2017-09-09T15:32:11.100Z,9.40
2017-09-09T15:34:38.568Z,6.97
2017-09-09T15:37:06.018Z,6.00
2017-09-09T15:39:34.189Z,5.40
2017-09-09T15:42:01.676Z,4.03
2017-09-09T15:44:29.136Z,4.70
2017-09-09T15:46:56.632Z,4.23
2017-09-09T15:49:24.087Z,7.70
2017-09-09T15:51:51.538Z,4.00
2017-09-09T15:54:19.215Z,4.97
2017-09-09T15:56:46.671Z,4.07
2017-09-09T15:59:14.128Z,2.57
2017-09-09T16:01:41.587Z,2.70
2017-09-09T16:04:09.045Z,2.87
2017-09-09T16:06:36.700Z,3.03
2017-09-09T16:09:04.153Z,3.43
2017-09-09T16:11:31.615Z,3.30
2017-09-09T16:13:59.179Z,4.40
2017-09-09T16:16:27.032Z,3.40
2017-09-09T16:18:54.487Z,3.63
2017-09-09T16:21:21.972Z,3.37
2017-09-09T16:23:49.450Z,4.27
2017-09-09T16:26:16.907Z,3.33
2017-09-09T16:28:44.386Z,5.53
2017-09-09T16:31:11.848Z,3.67
2017-09-09T16:33:39.305Z,4.47
2017-09-09T16:36:06.779Z,5.03
2017-09-09T16:38:34.235Z,4.07
2017-09-09T16:41:01.691Z,3.77
2017-09-09T16:43:29.196Z,4.00
2017-09-09T16:45:56.655Z,5.00
2017-09-09T16:48:24.115Z,4.37
2017-09-09T16:50:51.588Z,3.67
2017-09-09T16:53:19.051Z,4.07
2017-09-09T16:55:46.505Z,4.00
2017-09-09T16:58:14.074Z,4.97
2017-09-09T17:00:41.536Z,4.23
2017-09-09T17:03:08.983Z,3.50
2017-09-09T17:05:36.459Z,3.90
2017-09-09T17:08:03.915Z,4.60
2017-09-09T17:10:31.763Z,3.80
2017-09-09T17:12:59.372Z,3.43
2017-09-09T17:15:26.825Z,3.60
2017-09-09T17:17:54.295Z,5.07
2017-09-09T17:20:21.879Z,5.70
2017-09-09T17:22:49.340Z,3.90
2017-09-09T17:25:16.799Z,4.47
2017-09-09T17:27:44.275Z,3.80
2017-09-09T17:30:12.127Z,4.20
2017-09-09T17:32:39.583Z,4.87
2017-09-09T17:35:07.743Z,4.03
2017-09-09T17:37:35.195Z,3.30
2017-09-09T17:40:02.661Z,3.47
2017-09-09T17:42:30.417Z,8.00
2017-09-09T17:44:57.870Z,4.47
2017-09-09T17:47:25.324Z,3.90
2017-09-09T17:49:52.967Z,3.83
2017-09-09T17:52:20.429Z,3.60
2017-09-09T17:54:47.885Z,3.67
2017-09-09T17:57:15.364Z,4.10
2017-09-09T17:59:43.214Z,5.03
2017-09-09T18:02:10.672Z,3.87
2017-09-09T18:04:38.427Z,4.63
2017-09-09T18:07:05.887Z,9.73
2017-09-09T18:09:33.352Z,18.10
2017-09-09T18:12:00.833Z,10.00
2017-09-09T18:14:28.295Z,4.63
2017-09-09T18:16:55.761Z,7.00
2017-09-09T18:19:23.225Z,8.23
2017-09-09T18:21:50.680Z,4.90
2017-09-09T18:24:18.183Z,6.20
2017-09-09T18:26:46.045Z,5.30
2017-09-09T18:29:14.089Z,5.10
2017-09-09T18:31:41.564Z,6.43
2017-09-09T18:34:09.019Z,5.17
2017-09-09T18:36:36.475Z,7.27
2017-09-09T18:39:03.959Z,5.47
2017-09-09T18:41:31.439Z,6.37
2017-09-09T18:43:58.893Z,6.00
2017-09-09T18:46:26.702Z,11.80
2017-09-09T18:48:54.161Z,9.80
2017-09-09T18:51:21.610Z,7.70
2017-09-09T18:53:49.087Z,7.07
2017-09-09T18:56:16.556Z,10.30
2017-09-09T18:58:44.415Z,19.33
2017-09-09T19:01:11.894Z,6.50
2017-09-09T19:03:39.353Z,6.00
2017-09-09T19:06:06.813Z,7.23
2017-09-09T19:08:34.556Z,7.57
2017-09-09T19:11:02.012Z,6.00
2017-09-09T19:13:29.471Z,7.20
2017-09-09T19:15:56.952Z,6.60
2017-09-09T19:18:24.408Z,7.00
2017-09-09T19:20:51.855Z,6.70
2017-09-09T19:23:19.555Z,7.27
2017-09-09T19:25:47.007Z,6.50
2017-09-09T19:28:14.471Z,12.03
2017-09-09T19:30:42.372Z,26.50
2017-09-09T19:33:09.844Z,31.03
2017-09-09T19:35:37.307Z,30.53
2017-09-09T19:38:04.885Z,29.33
2017-09-09T19:40:32.352Z,27.50
2017-09-09T19:42:59.829Z,23.77
2017-09-09T19:45:27.670Z,25.30
2017-09-09T19:47:55.144Z,18.50
2017-09-09T19:50:22.603Z,26.00
2017-09-09T19:52:50.476Z,23.17
2017-09-09T19:55:18.334Z,24.67
2017-09-09T19:57:45.806Z,22.53
2017-09-09T20:00:13.320Z,18.10
2017-09-09T20:02:40.782Z,20.10
2017-09-09T20:05:08.251Z,15.50
2017-09-09T20:07:36.100Z,15.57
2017-09-09T20:10:03.559Z,16.47
2017-09-09T20:12:31.018Z,16.10
2017-09-09T20:14:58.984Z,14.00
2017-09-09T20:17:26.848Z,12.87
2017-09-09T20:19:54.303Z,13.07
2017-09-09T20:22:21.780Z,12.17
2017-09-09T20:24:49.248Z,14.40
2017-09-09T20:27:16.717Z,13.90
2017-09-09T20:29:44.207Z,14.37
2017-09-09T20:32:11.667Z,12.80
2017-09-09T20:34:39.136Z,12.60
2017-09-09T20:37:06.711Z,12.00
2017-09-09T20:39:34.576Z,12.50
2017-09-09T20:42:02.035Z,12.70
2017-09-09T20:44:29.505Z,14.23
2017-09-09T20:46:56.975Z,12.30
2017-09-09T20:49:24.434Z,12.97
2017-09-09T20:51:51.905Z,14.30
2017-09-09T20:54:19.399Z,13.70
2017-09-09T20:56:46.864Z,12.93
2017-09-09T20:59:14.729Z,13.20
2017-09-09T21:01:42.603Z,15.20
2017-09-09T21:04:10.063Z,14.70
2017-09-09T21:06:37.543Z,15.80
2017-09-09T21:09:05.344Z,14.13
2017-09-09T21:11:32.810Z,15.33
2017-09-09T21:14:00.663Z,14.37
2017-09-09T21:16:28.160Z,14.03
2017-09-09T21:18:55.628Z,11.80
2017-09-09T21:21:23.083Z,12.03
2017-09-09T21:23:50.852Z,11.83
2017-09-09T21:26:18.323Z,12.53
2017-09-09T21:28:45.788Z,12.40
2017-09-09T21:31:13.559Z,10.47
2017-09-09T21:33:41.023Z,11.10
2017-09-09T21:36:08.488Z,12.13
2017-09-09T21:38:36.483Z,12.40
2017-09-09T21:41:03.947Z,11.20
2017-09-09T21:43:31.407Z,11.87
2017-09-09T21:45:58.867Z,10.80
2017-09-09T21:48:26.573Z,11.50
2017-09-09T21:50:54.035Z,10.97
2017-09-09T21:53:21.508Z,11.57
2017-09-09T21:55:49.411Z,12.87
2017-09-09T21:58:16.874Z,13.33
2017-09-09T22:00:44.341Z,12.50
2017-09-09T22:03:11.824Z,12.43
2017-09-09T22:05:39.283Z,12.13
2017-09-09T22:08:06.747Z,12.83
2017-09-09T22:10:34.208Z,12.77
2017-09-09T22:13:01.672Z,13.40
2017-09-09T22:15:29.154Z,13.57
2017-09-09T22:17:56.619Z,14.10
2017-09-09T22:20:24.083Z,12.67
2017-09-09T22:22:51.706Z,12.97
2017-09-09T22:25:19.212Z,13.70
2017-09-09T22:27:46.676Z,13.07
2017-09-09T22:30:14.539Z,13.80
2017-09-09T22:32:42.000Z,12.27
2017-09-09T22:35:09.859Z,14.70
2017-09-09T22:37:37.363Z,14.40
2017-09-09T22:40:04.828Z,15.63
2017-09-09T22:42:32.291Z,15.60
2017-09-09T22:44:59.791Z,14.97
2017-09-09T22:47:27.256Z,15.60
2017-09-09T22:49:55.112Z,16.93
2017-09-09T22:52:23.425Z,15.80
2017-09-09T22:54:50.888Z,17.33
2017-09-09T22:57:18.347Z,19.30
2017-09-09T22:59:45.828Z,15.83
2017-09-09T23:02:13.287Z,17.03
2017-09-09T23:04:41.056Z,19.10
2017-09-09T23:07:08.511Z,18.73
2017-09-09T23:09:35.976Z,19.53
2017-09-09T23:12:03.951Z,20.03
2017-09-09T23:14:31.410Z,21.23
2017-09-09T23:16:58.879Z,23.63
2017-09-09T23:19:26.371Z,20.50
2017-09-09T23:21:53.831Z,17.57
2017-09-09T23:24:21.300Z,23.10
2017-09-09T23:26:48.773Z,19.93
2017-09-09T23:29:16.236Z,22.10
2017-09-09T23:31:43.704Z,24.70
2017-09-09T23:34:11.191Z,21.87
2017-09-09T23:36:38.659Z,21.63
2017-09-09T23:39:06.118Z,21.13
2017-09-09T23:41:33.621Z,21.33
2017-09-09T23:44:01.084Z,20.20
2017-09-09T23:46:28.566Z,21.20
2017-09-09T23:48:56.067Z,21.57
2017-09-09T23:51:23.526Z,19.83
2017-09-09T23:53:50.987Z,20.23
2017-09-09T23:56:18.608Z,19.47
2017-09-09T23:58:46.070Z,18.87
